Terminal Aerodrome Forecast
Issued by NWS

Home | Current Version | Previous Version | Graphics & Text | Print | Product List | Glossary On
Versions: 1 2 3 4 5 6 7 8 9 10 11 12 13 14 15 16 17 18 19 20 21
000
FTUS43 KGRB 301552 AAB
TAFMTW
TAF AMD
KMTW 301552Z 3016/3112 21006KT P6SM SCT007 BKN020
      TEMPO 3016/3020 BKN007
     FM302000 21007KT P6SM SCT025
     FM310100 19003KT P6SM SKC
     FM310700 21006KT P6SM BKN005=

USA.gov is the U.S. government's official web portal to all federal, state and local government web resources and services.